sensor_id;sensor_type;location;lat;lon;timestamp;temperature;humidity
58517;DHT22;44308;50.810;0.284;2023-08-31T00:00:26;13.70;99.90
58517;DHT22;44308;50.810;0.284;2023-08-31T00:06:02;13.50;99.90
58517;DHT22;44308;50.810;0.284;2023-08-31T00:08:28;13.50;99.90
58517;DHT22;44308;50.810;0.284;2023-08-31T00:10:58;13.40;99.90
58517;DHT22;44308;50.810;0.284;2023-08-31T00:16:13;13.40;99.90
58517;DHT22;44308;50.810;0.284;2023-08-31T00:18:39;13.50;99.90
58517;DHT22;44308;50.810;0.284;2023-08-31T00:21:04;13.40;99.90
58517;DHT22;44308;50.810;0.284;2023-08-31T00:27:11;13.40;99.90
58517;DHT22;44308;50.810;0.284;2023-08-31T00:29:39;13.40;99.90
58517;DHT22;44308;50.810;0.284;2023-08-31T00:32:05;13.40;99.90
58517;DHT22;44308;50.810;0.284;2023-08-31T00:34:31;13.40;99.90
58517;DHT22;44308;50.810;0.284;2023-08-31T00:36:57;13.40;99.90
58517;DHT22;44308;50.810;0.284;2023-08-31T00:39:23;13.20;99.90
58517;DHT22;44308;50.810;0.284;2023-08-31T00:41:49;13.20;99.90
58517;DHT22;44308;50.810;0.284;2023-08-31T00:44:15;13.20;99.90
58517;DHT22;44308;50.810;0.284;2023-08-31T00:46:42;13.10;99.90
58517;DHT22;44308;50.810;0.284;2023-08-31T00:49:08;13.00;99.90
58517;DHT22;44308;50.810;0.284;2023-08-31T00:51:34;13.00;99.90
58517;DHT22;44308;50.810;0.284;2023-08-31T00:54:01;12.90;99.90
58517;DHT22;44308;50.810;0.284;2023-08-31T00:56:26;12.90;99.90
58517;DHT22;44308;50.810;0.284;2023-08-31T00:58:52;12.80;99.90
58517;DHT22;44308;50.810;0.284;2023-08-31T01:01:36;12.80;99.90
58517;DHT22;44308;50.810;0.284;2023-08-31T01:09:39;12.70;99.90
58517;DHT22;44308;50.810;0.284;2023-08-31T01:12:18;12.70;99.90
58517;DHT22;44308;50.810;0.284;2023-08-31T01:15:03;12.70;99.90
58517;DHT22;44308;50.810;0.284;2023-08-31T01:17:47;12.70;99.90
58517;DHT22;44308;50.810;0.284;2023-08-31T01:20:17;12.70;99.90
58517;DHT22;44308;50.810;0.284;2023-08-31T01:22:57;12.80;99.90
58517;DHT22;44308;50.810;0.284;2023-08-31T01:25:24;12.80;99.90
58517;DHT22;44308;50.810;0.284;2023-08-31T01:27:51;12.90;99.90
58517;DHT22;44308;50.810;0.284;2023-08-31T01:30:17;12.90;99.90
58517;DHT22;44308;50.810;0.284;2023-08-31T01:32:45;12.90;99.90
58517;DHT22;44308;50.810;0.284;2023-08-31T01:35:12;13.00;99.90
58517;DHT22;44308;50.810;0.284;2023-08-31T01:37:45;13.00;99.90
58517;DHT22;44308;50.810;0.284;2023-08-31T01:40:15;13.00;99.90
58517;DHT22;44308;50.810;0.284;2023-08-31T01:42:46;13.00;99.90
58517;DHT22;44308;50.810;0.284;2023-08-31T01:45:15;13.00;99.90
58517;DHT22;44308;50.810;0.284;2023-08-31T01:47:42;13.00;99.90
58517;DHT22;44308;50.810;0.284;2023-08-31T01:50:08;13.00;99.90
58517;DHT22;44308;50.810;0.284;2023-08-31T01:52:34;13.00;99.90
58517;DHT22;44308;50.810;0.284;2023-08-31T01:55:00;13.00;99.90
58517;DHT22;44308;50.810;0.284;2023-08-31T01:57:26;13.00;99.90
58517;DHT22;44308;50.810;0.284;2023-08-31T01:59:51;13.00;99.90
58517;DHT22;44308;50.810;0.284;2023-08-31T02:02:17;13.00;99.90
58517;DHT22;44308;50.810;0.284;2023-08-31T02:05:03;13.00;99.90
58517;DHT22;44308;50.810;0.284;2023-08-31T02:07:30;13.00;99.90
58517;DHT22;44308;50.810;0.284;2023-08-31T02:09:55;13.00;99.90
58517;DHT22;44308;50.810;0.284;2023-08-31T02:12:22;13.00;99.90
58517;DHT22;44308;50.810;0.284;2023-08-31T02:14:53;13.00;99.90
58517;DHT22;44308;50.810;0.284;2023-08-31T02:17:19;13.00;99.90
58517;DHT22;44308;50.810;0.284;2023-08-31T02:19:45;13.00;99.90
58517;DHT22;44308;50.810;0.284;2023-08-31T02:22:11;13.00;99.90
58517;DHT22;44308;50.810;0.284;2023-08-31T02:24:38;12.90;99.90
58517;DHT22;44308;50.810;0.284;2023-08-31T02:27:04;13.00;99.90
58517;DHT22;44308;50.810;0.284;2023-08-31T02:29:30;13.10;99.90
58517;DHT22;44308;50.810;0.284;2023-08-31T02:31:56;13.10;99.90
58517;DHT22;44308;50.810;0.284;2023-08-31T02:37:27;13.10;99.90
58517;DHT22;44308;50.810;0.284;2023-08-31T02:39:53;13.00;99.90
58517;DHT22;44308;50.810;0.284;2023-08-31T02:42:19;13.00;99.90
58517;DHT22;44308;50.810;0.284;2023-08-31T02:45:04;13.00;99.90
58517;DHT22;44308;50.810;0.284;2023-08-31T02:47:30;13.00;99.90
58517;DHT22;44308;50.810;0.284;2023-08-31T02:52:22;12.90;99.90
58517;DHT22;44308;50.810;0.284;2023-08-31T03:01:06;12.80;99.90
58517;DHT22;44308;50.810;0.284;2023-08-31T03:08:45;12.70;99.90
58517;DHT22;44308;50.810;0.284;2023-08-31T03:11:12;12.80;99.90
58517;DHT22;44308;50.810;0.284;2023-08-31T03:17:02;12.70;99.90
58517;DHT22;44308;50.810;0.284;2023-08-31T03:19:29;12.70;99.90
58517;DHT22;44308;50.810;0.284;2023-08-31T03:21:54;12.70;99.90
58517;DHT22;44308;50.810;0.284;2023-08-31T03:24:20;12.70;99.90
58517;DHT22;44308;50.810;0.284;2023-08-31T03:26:46;12.70;99.90
58517;DHT22;44308;50.810;0.284;2023-08-31T03:29:12;12.70;99.90
58517;DHT22;44308;50.810;0.284;2023-08-31T03:31:37;12.70;99.90
58517;DHT22;44308;50.810;0.284;2023-08-31T03:34:03;12.70;99.90
58517;DHT22;44308;50.810;0.284;2023-08-31T03:36:29;12.80;99.90
58517;DHT22;44308;50.810;0.284;2023-08-31T03:38:55;12.80;99.90
58517;DHT22;44308;50.810;0.284;2023-08-31T03:41:20;12.80;99.90
58517;DHT22;44308;50.810;0.284;2023-08-31T03:44:14;12.90;99.90
58517;DHT22;44308;50.810;0.284;2023-08-31T03:46:40;12.90;99.90
58517;DHT22;44308;50.810;0.284;2023-08-31T03:49:05;13.00;99.90
58517;DHT22;44308;50.810;0.284;2023-08-31T03:51:31;13.00;99.90
58517;DHT22;44308;50.810;0.284;2023-08-31T03:54:00;13.00;99.90
58517;DHT22;44308;50.810;0.284;2023-08-31T03:56:26;13.00;99.90
58517;DHT22;44308;50.810;0.284;2023-08-31T03:58:52;13.00;99.90
58517;DHT22;44308;50.810;0.284;2023-08-31T04:01:18;13.00;99.90
58517;DHT22;44308;50.810;0.284;2023-08-31T04:04:04;13.00;99.90
58517;DHT22;44308;50.810;0.284;2023-08-31T04:06:30;13.00;99.90
58517;DHT22;44308;50.810;0.284;2023-08-31T04:08:56;13.00;99.90
58517;DHT22;44308;50.810;0.284;2023-08-31T04:11:22;13.00;99.90
58517;DHT22;44308;50.810;0.284;2023-08-31T04:13:48;13.00;99.90
58517;DHT22;44308;50.810;0.284;2023-08-31T04:16:14;12.90;99.90
58517;DHT22;44308;50.810;0.284;2023-08-31T04:18:40;12.90;99.90
58517;DHT22;44308;50.810;0.284;2023-08-31T04:21:05;12.90;99.90
58517;DHT22;44308;50.810;0.284;2023-08-31T04:27:13;12.90;99.90
58517;DHT22;44308;50.810;0.284;2023-08-31T04:29:38;12.90;99.90
58517;DHT22;44308;50.810;0.284;2023-08-31T04:32:04;12.90;99.90
58517;DHT22;44308;50.810;0.284;2023-08-31T04:34:32;12.90;99.90
58517;DHT22;44308;50.810;0.284;2023-08-31T04:36:58;12.90;99.90
58517;DHT22;44308;50.810;0.284;2023-08-31T04:39:24;12.70;99.90
58517;DHT22;44308;50.810;0.284;2023-08-31T04:41:50;12.70;99.90
58517;DHT22;44308;50.810;0.284;2023-08-31T04:50:04;12.60;99.90
58517;DHT22;44308;50.810;0.284;2023-08-31T04:52:33;12.60;99.90
58517;DHT22;44308;50.810;0.284;2023-08-31T04:59:56;12.70;99.90
58517;DHT22;44308;50.810;0.284;2023-08-31T05:02:21;12.60;99.90
58517;DHT22;44308;50.810;0.284;2023-08-31T05:04:48;12.60;99.90
58517;DHT22;44308;50.810;0.284;2023-08-31T05:07:14;12.60;99.90
58517;DHT22;44308;50.810;0.284;2023-08-31T05:09:39;12.60;99.90
58517;DHT22;44308;50.810;0.284;2023-08-31T05:12:05;12.60;99.90
58517;DHT22;44308;50.810;0.284;2023-08-31T05:17:36;12.60;99.90
58517;DHT22;44308;50.810;0.284;2023-08-31T05:20:02;12.70;99.90
58517;DHT22;44308;50.810;0.284;2023-08-31T05:22:30;12.70;99.90
58517;DHT22;44308;50.810;0.284;2023-08-31T05:24:56;12.60;99.90
58517;DHT22;44308;50.810;0.284;2023-08-31T05:27:21;12.70;99.90
58517;DHT22;44308;50.810;0.284;2023-08-31T05:32:14;12.60;99.90
58517;DHT22;44308;50.810;0.284;2023-08-31T05:37:45;12.70;99.90
58517;DHT22;44308;50.810;0.284;2023-08-31T05:40:11;12.70;99.90
58517;DHT22;44308;50.810;0.284;2023-08-31T05:46:38;12.90;99.90
58517;DHT22;44308;50.810;0.284;2023-08-31T05:51:31;13.00;99.90
58517;DHT22;44308;50.810;0.284;2023-08-31T05:57:38;13.00;99.90
58517;DHT22;44308;50.810;0.284;2023-08-31T06:00:05;13.20;99.90
58517;DHT22;44308;50.810;0.284;2023-08-31T06:02:32;13.20;99.90
58517;DHT22;44308;50.810;0.284;2023-08-31T06:04:58;13.20;99.90
58517;DHT22;44308;50.810;0.284;2023-08-31T06:07:24;13.30;99.90
58517;DHT22;44308;50.810;0.284;2023-08-31T06:09:50;13.30;99.90
58517;DHT22;44308;50.810;0.284;2023-08-31T06:12:15;13.40;99.90
58517;DHT22;44308;50.810;0.284;2023-08-31T06:17:07;13.50;99.90
58517;DHT22;44308;50.810;0.284;2023-08-31T06:19:34;13.70;99.90
58517;DHT22;44308;50.810;0.284;2023-08-31T06:22:02;13.80;99.90
58517;DHT22;44308;50.810;0.284;2023-08-31T06:24:30;13.90;99.90
58517;DHT22;44308;50.810;0.284;2023-08-31T06:26:55;14.00;99.90
58517;DHT22;44308;50.810;0.284;2023-08-31T06:29:22;14.10;99.90
58517;DHT22;44308;50.810;0.284;2023-08-31T06:31:48;14.20;99.90
58517;DHT22;44308;50.810;0.284;2023-08-31T06:34:16;14.10;99.90
58517;DHT22;44308;50.810;0.284;2023-08-31T06:36:42;14.30;99.90
58517;DHT22;44308;50.810;0.284;2023-08-31T06:39:07;14.50;99.90
58517;DHT22;44308;50.810;0.284;2023-08-31T06:41:33;14.50;99.90
58517;DHT22;44308;50.810;0.284;2023-08-31T06:44:02;14.70;99.90
58517;DHT22;44308;50.810;0.284;2023-08-31T06:46:28;14.80;99.90
58517;DHT22;44308;50.810;0.284;2023-08-31T06:48:54;14.80;99.90
58517;DHT22;44308;50.810;0.284;2023-08-31T06:51:20;15.00;99.90
58517;DHT22;44308;50.810;0.284;2023-08-31T06:54:06;15.00;99.90
58517;DHT22;44308;50.810;0.284;2023-08-31T06:56:33;15.00;99.90
58517;DHT22;44308;50.810;0.284;2023-08-31T06:59:02;15.00;99.90
58517;DHT22;44308;50.810;0.284;2023-08-31T07:01:29;15.20;99.90
58517;DHT22;44308;50.810;0.284;2023-08-31T07:03:56;15.20;99.90
58517;DHT22;44308;50.810;0.284;2023-08-31T07:06:22;15.40;99.90
58517;DHT22;44308;50.810;0.284;2023-08-31T07:08:47;15.40;99.90
58517;DHT22;44308;50.810;0.284;2023-08-31T07:11:14;15.50;99.90
58517;DHT22;44308;50.810;0.284;2023-08-31T07:14:00;15.50;99.90
58517;DHT22;44308;50.810;0.284;2023-08-31T07:16:26;15.50;99.90
58517;DHT22;44308;50.810;0.284;2023-08-31T07:18:52;15.50;99.90
58517;DHT22;44308;50.810;0.284;2023-08-31T07:21:17;15.60;99.90
58517;DHT22;44308;50.810;0.284;2023-08-31T07:23:45;15.70;99.90
58517;DHT22;44308;50.810;0.284;2023-08-31T07:26:10;15.70;99.90
58517;DHT22;44308;50.810;0.284;2023-08-31T07:28:36;15.60;99.90
58517;DHT22;44308;50.810;0.284;2023-08-31T07:31:06;15.60;99.90
58517;DHT22;44308;50.810;0.284;2023-08-31T07:36:36;15.60;99.90
58517;DHT22;44308;50.810;0.284;2023-08-31T07:39:02;15.60;99.90
58517;DHT22;44308;50.810;0.284;2023-08-31T07:51:01;16.10;99.90
58517;DHT22;44308;50.810;0.284;2023-08-31T07:56:18;16.40;99.90
58517;DHT22;44308;50.810;0.284;2023-08-31T07:58:44;16.50;99.90
58517;DHT22;44308;50.810;0.284;2023-08-31T08:01:10;16.60;99.90
58517;DHT22;44308;50.810;0.284;2023-08-31T08:08:47;16.80;99.90
58517;DHT22;44308;50.810;0.284;2023-08-31T08:11:13;17.00;99.90
58517;DHT22;44308;50.810;0.284;2023-08-31T08:17:02;17.20;99.90
58517;DHT22;44308;50.810;0.284;2023-08-31T08:21:55;17.70;99.90
58517;DHT22;44308;50.810;0.284;2023-08-31T08:27:24;18.10;99.90
58517;DHT22;44308;50.810;0.284;2023-08-31T08:29:50;18.20;99.90
58517;DHT22;44308;50.810;0.284;2023-08-31T08:32:15;18.30;99.90
58517;DHT22;44308;50.810;0.284;2023-08-31T08:34:43;18.50;99.90
58517;DHT22;44308;50.810;0.284;2023-08-31T08:37:09;18.80;99.90
58517;DHT22;44308;50.810;0.284;2023-08-31T08:39:35;19.00;99.90
58517;DHT22;44308;50.810;0.284;2023-08-31T08:42:06;19.10;99.90
58517;DHT22;44308;50.810;0.284;2023-08-31T08:44:33;19.30;99.90
58517;DHT22;44308;50.810;0.284;2023-08-31T08:47:01;19.50;99.90
58517;DHT22;44308;50.810;0.284;2023-08-31T08:49:28;19.80;99.90
58517;DHT22;44308;50.810;0.284;2023-08-31T08:51:55;19.90;99.90
58517;DHT22;44308;50.810;0.284;2023-08-31T08:57:30;20.00;99.90
58517;DHT22;44308;50.810;0.284;2023-08-31T08:59:58;19.70;99.90
58517;DHT22;44308;50.810;0.284;2023-08-31T09:02:24;19.60;99.90
58517;DHT22;44308;50.810;0.284;2023-08-31T09:04:49;19.40;99.90
58517;DHT22;44308;50.810;0.284;2023-08-31T09:07:21;19.00;99.90
58517;DHT22;44308;50.810;0.284;2023-08-31T09:09:53;19.00;99.90
58517;DHT22;44308;50.810;0.284;2023-08-31T09:12:23;18.80;99.90
58517;DHT22;44308;50.810;0.284;2023-08-31T09:15:18;18.60;99.90
58517;DHT22;44308;50.810;0.284;2023-08-31T09:17:44;18.50;99.90
58517;DHT22;44308;50.810;0.284;2023-08-31T09:20:10;18.40;99.90
58517;DHT22;44308;50.810;0.284;2023-08-31T09:22:36;18.30;99.90
58517;DHT22;44308;50.810;0.284;2023-08-31T09:25:02;18.20;99.90
58517;DHT22;44308;50.810;0.284;2023-08-31T09:27:29;18.20;99.90
58517;DHT22;44308;50.810;0.284;2023-08-31T09:29:56;18.10;99.90
58517;DHT22;44308;50.810;0.284;2023-08-31T09:32:23;17.90;99.90
58517;DHT22;44308;50.810;0.284;2023-08-31T09:38:30;17.60;99.90
58517;DHT22;44308;50.810;0.284;2023-08-31T09:41:05;17.50;99.90
58517;DHT22;44308;50.810;0.284;2023-08-31T09:47:15;17.20;99.90
58517;DHT22;44308;50.810;0.284;2023-08-31T09:49:42;17.30;99.90
58517;DHT22;44308;50.810;0.284;2023-08-31T09:58:21;17.10;99.90
58517;DHT22;44308;50.810;0.284;2023-08-31T10:00:51;17.10;99.90
58517;DHT22;44308;50.810;0.284;2023-08-31T10:03:20;17.10;99.90
58517;DHT22;44308;50.810;0.284;2023-08-31T10:05:49;17.10;99.90
58517;DHT22;44308;50.810;0.284;2023-08-31T10:10:42;17.20;99.90
58517;DHT22;44308;50.810;0.284;2023-08-31T10:19:18;17.10;99.90
58517;DHT22;44308;50.810;0.284;2023-08-31T10:21:44;17.00;99.90
58517;DHT22;44308;50.810;0.284;2023-08-31T10:27:50;17.00;99.90
58517;DHT22;44308;50.810;0.284;2023-08-31T10:35:48;16.80;99.90
58517;DHT22;44308;50.810;0.284;2023-08-31T10:40:40;16.90;99.90
58517;DHT22;44308;50.810;0.284;2023-08-31T10:51:29;16.70;99.90
58517;DHT22;44308;50.810;0.284;2023-08-31T10:57:10;16.90;99.90
58517;DHT22;44308;50.810;0.284;2023-08-31T11:04:59;17.00;99.90
58517;DHT22;44308;50.810;0.284;2023-08-31T11:10:07;16.90;99.90
58517;DHT22;44308;50.810;0.284;2023-08-31T11:12:33;16.80;99.90
58517;DHT22;44308;50.810;0.284;2023-08-31T11:14:59;16.70;99.90
58517;DHT22;44308;50.810;0.284;2023-08-31T11:17:25;16.70;99.90
58517;DHT22;44308;50.810;0.284;2023-08-31T11:19:51;16.70;99.90
58517;DHT22;44308;50.810;0.284;2023-08-31T11:22:16;16.70;99.90
58517;DHT22;44308;50.810;0.284;2023-08-31T11:24:43;16.70;99.90
58517;DHT22;44308;50.810;0.284;2023-08-31T11:27:09;16.70;99.90
58517;DHT22;44308;50.810;0.284;2023-08-31T11:29:43;16.60;99.90
58517;DHT22;44308;50.810;0.284;2023-08-31T11:32:09;16.30;99.90
58517;DHT22;44308;50.810;0.284;2023-08-31T11:37:08;16.10;99.90
58517;DHT22;44308;50.810;0.284;2023-08-31T11:42:00;16.00;99.90
58517;DHT22;44308;50.810;0.284;2023-08-31T11:44:27;16.10;99.90
58517;DHT22;44308;50.810;0.284;2023-08-31T11:46:53;16.00;99.90
58517;DHT22;44308;50.810;0.284;2023-08-31T11:49:19;15.70;99.90
58517;DHT22;44308;50.810;0.284;2023-08-31T11:51:47;15.60;99.90
58517;DHT22;44308;50.810;0.284;2023-08-31T11:54:16;15.50;99.90
58517;DHT22;44308;50.810;0.284;2023-08-31T11:56:44;15.20;99.90
58517;DHT22;44308;50.810;0.284;2023-08-31T11:59:14;15.10;99.90
58517;DHT22;44308;50.810;0.284;2023-08-31T12:01:42;15.10;99.90
58517;DHT22;44308;50.810;0.284;2023-08-31T12:04:15;15.10;99.90
58517;DHT22;44308;50.810;0.284;2023-08-31T12:09:09;14.90;99.90
58517;DHT22;44308;50.810;0.284;2023-08-31T12:11:35;15.00;99.90
58517;DHT22;44308;50.810;0.284;2023-08-31T12:14:03;14.90;99.90
58517;DHT22;44308;50.810;0.284;2023-08-31T12:23:59;15.10;99.90
58517;DHT22;44308;50.810;0.284;2023-08-31T12:28:52;15.10;99.90
58517;DHT22;44308;50.810;0.284;2023-08-31T12:31:18;15.10;99.90
58517;DHT22;44308;50.810;0.284;2023-08-31T12:37:50;15.20;99.90
58517;DHT22;44308;50.810;0.284;2023-08-31T12:40:16;15.40;99.90
58517;DHT22;44308;50.810;0.284;2023-08-31T12:45:52;15.80;99.90
58517;DHT22;44308;50.810;0.284;2023-08-31T12:48:18;15.70;99.90
58517;DHT22;44308;50.810;0.284;2023-08-31T12:50:43;15.60;99.90
58517;DHT22;44308;50.810;0.284;2023-08-31T12:53:09;15.60;99.90
58517;DHT22;44308;50.810;0.284;2023-08-31T12:55:37;15.50;99.90
58517;DHT22;44308;50.810;0.284;2023-08-31T12:58:03;15.50;99.90
58517;DHT22;44308;50.810;0.284;2023-08-31T13:00:29;15.60;99.90
58517;DHT22;44308;50.810;0.284;2023-08-31T13:02:58;15.60;99.90
58517;DHT22;44308;50.810;0.284;2023-08-31T13:05:24;15.70;99.90
58517;DHT22;44308;50.810;0.284;2023-08-31T13:07:51;15.70;99.90
58517;DHT22;44308;50.810;0.284;2023-08-31T13:10:16;15.80;99.90
58517;DHT22;44308;50.810;0.284;2023-08-31T13:13:02;15.80;99.90
58517;DHT22;44308;50.810;0.284;2023-08-31T13:15:31;15.90;99.90
58517;DHT22;44308;50.810;0.284;2023-08-31T13:17:56;15.80;99.90
58517;DHT22;44308;50.810;0.284;2023-08-31T13:20:22;15.70;99.90
58517;DHT22;44308;50.810;0.284;2023-08-31T13:25:53;15.80;99.90
58517;DHT22;44308;50.810;0.284;2023-08-31T13:28:18;15.80;99.90
58517;DHT22;44308;50.810;0.284;2023-08-31T13:30:44;15.80;99.90
58517;DHT22;44308;50.810;0.284;2023-08-31T13:33:12;15.80;99.90
58517;DHT22;44308;50.810;0.284;2023-08-31T13:35:38;15.80;99.90
58517;DHT22;44308;50.810;0.284;2023-08-31T13:38:04;15.80;99.90
58517;DHT22;44308;50.810;0.284;2023-08-31T13:40:30;15.80;99.90
58517;DHT22;44308;50.810;0.284;2023-08-31T13:42:58;15.70;99.90
58517;DHT22;44308;50.810;0.284;2023-08-31T13:45:27;15.80;99.90
58517;DHT22;44308;50.810;0.284;2023-08-31T13:47:53;15.60;99.90
58517;DHT22;44308;50.810;0.284;2023-08-31T13:50:19;15.60;99.90
58517;DHT22;44308;50.810;0.284;2023-08-31T13:53:04;15.80;99.90
58517;DHT22;44308;50.810;0.284;2023-08-31T14:52:16;15.50;99.90
58517;DHT22;44308;50.810;0.284;2023-08-31T14:55:04;15.80;99.90
58517;DHT22;44308;50.810;0.284;2023-08-31T14:59:56;15.60;99.90
58517;DHT22;44308;50.810;0.284;2023-08-31T15:10:41;15.70;99.90
58517;DHT22;44308;50.810;0.284;2023-08-31T15:16:32;16.00;99.90
58517;DHT22;44308;50.810;0.284;2023-08-31T15:19:00;15.90;99.90
58517;DHT22;44308;50.810;0.284;2023-08-31T15:21:26;15.90;99.90
58517;DHT22;44308;50.810;0.284;2023-08-31T15:23:54;16.00;99.90
58517;DHT22;44308;50.810;0.284;2023-08-31T15:26:21;16.00;99.90
58517;DHT22;44308;50.810;0.284;2023-08-31T15:28:46;15.90;99.90
58517;DHT22;44308;50.810;0.284;2023-08-31T15:31:13;15.90;99.90
58517;DHT22;44308;50.810;0.284;2023-08-31T15:33:58;15.90;99.90
58517;DHT22;44308;50.810;0.284;2023-08-31T15:36:24;16.00;99.90
58517;DHT22;44308;50.810;0.284;2023-08-31T15:38:50;16.00;99.90
58517;DHT22;44308;50.810;0.284;2023-08-31T15:41:15;15.90;99.90
58517;DHT22;44308;50.810;0.284;2023-08-31T15:44:02;15.90;99.90
58517;DHT22;44308;50.810;0.284;2023-08-31T15:46:29;15.70;99.90
58517;DHT22;44308;50.810;0.284;2023-08-31T15:48:55;15.70;99.90
58517;DHT22;44308;50.810;0.284;2023-08-31T15:51:21;15.80;99.90
58517;DHT22;44308;50.810;0.284;2023-08-31T15:53:48;15.80;99.90
58517;DHT22;44308;50.810;0.284;2023-08-31T15:56:14;15.80;99.90
58517;DHT22;44308;50.810;0.284;2023-08-31T15:58:39;16.20;99.90
58517;DHT22;44308;50.810;0.284;2023-08-31T16:01:10;16.00;99.90
58517;DHT22;44308;50.810;0.284;2023-08-31T16:03:36;16.30;99.90
58517;DHT22;44308;50.810;0.284;2023-08-31T16:06:04;16.30;99.90
58517;DHT22;44308;50.810;0.284;2023-08-31T16:08:30;16.40;99.90
58517;DHT22;44308;50.810;0.284;2023-08-31T16:10:57;16.40;99.90
58517;DHT22;44308;50.810;0.284;2023-08-31T16:13:24;16.40;99.90
58517;DHT22;44308;50.810;0.284;2023-08-31T16:15:50;16.40;99.90
58517;DHT22;44308;50.810;0.284;2023-08-31T16:18:17;16.50;99.90
58517;DHT22;44308;50.810;0.284;2023-08-31T16:20:43;16.60;99.90
58517;DHT22;44308;50.810;0.284;2023-08-31T16:23:11;16.60;99.90
58517;DHT22;44308;50.810;0.284;2023-08-31T16:25:37;16.60;99.90
58517;DHT22;44308;50.810;0.284;2023-08-31T16:28:03;16.60;99.90
58517;DHT22;44308;50.810;0.284;2023-08-31T16:30:29;16.60;99.90
58517;DHT22;44308;50.810;0.284;2023-08-31T16:33:15;16.60;99.90
58517;DHT22;44308;50.810;0.284;2023-08-31T16:36:03;16.60;99.90
58517;DHT22;44308;50.810;0.284;2023-08-31T16:38:32;16.70;99.90
58517;DHT22;44308;50.810;0.284;2023-08-31T16:40:58;16.70;99.90
58517;DHT22;44308;50.810;0.284;2023-08-31T16:43:25;16.80;99.90
58517;DHT22;44308;50.810;0.284;2023-08-31T16:45:51;16.70;99.90
58517;DHT22;44308;50.810;0.284;2023-08-31T16:48:17;16.80;99.90
58517;DHT22;44308;50.810;0.284;2023-08-31T16:50:43;16.80;99.90
58517;DHT22;44308;50.810;0.284;2023-08-31T16:53:11;16.80;99.90
58517;DHT22;44308;50.810;0.284;2023-08-31T16:55:37;16.90;99.90
58517;DHT22;44308;50.810;0.284;2023-08-31T16:58:04;16.90;99.90
58517;DHT22;44308;50.810;0.284;2023-08-31T17:00:30;16.90;99.90
58517;DHT22;44308;50.810;0.284;2023-08-31T17:02:56;16.90;99.90
58517;DHT22;44308;50.810;0.284;2023-08-31T17:05:21;17.00;99.90
58517;DHT22;44308;50.810;0.284;2023-08-31T17:07:47;16.90;99.90
58517;DHT22;44308;50.810;0.284;2023-08-31T17:10:13;17.10;99.90
58517;DHT22;44308;50.810;0.284;2023-08-31T17:12:39;16.90;99.90
58517;DHT22;44308;50.810;0.284;2023-08-31T17:15:06;16.90;99.90
58517;DHT22;44308;50.810;0.284;2023-08-31T17:17:33;17.00;99.90
58517;DHT22;44308;50.810;0.284;2023-08-31T17:19:59;17.20;99.90
58517;DHT22;44308;50.810;0.284;2023-08-31T17:22:26;17.20;99.90
58517;DHT22;44308;50.810;0.284;2023-08-31T17:25:12;17.20;99.90
58517;DHT22;44308;50.810;0.284;2023-08-31T17:27:38;17.30;99.90
58517;DHT22;44308;50.810;0.284;2023-08-31T17:30:05;17.40;99.90
58517;DHT22;44308;50.810;0.284;2023-08-31T17:32:34;17.40;99.90
58517;DHT22;44308;50.810;0.284;2023-08-31T17:35:01;17.40;99.90
58517;DHT22;44308;50.810;0.284;2023-08-31T17:37:29;17.50;99.90
58517;DHT22;44308;50.810;0.284;2023-08-31T17:39:55;17.40;99.90
58517;DHT22;44308;50.810;0.284;2023-08-31T17:42:20;17.40;99.90
58517;DHT22;44308;50.810;0.284;2023-08-31T17:44:47;17.40;99.90
58517;DHT22;44308;50.810;0.284;2023-08-31T17:47:14;17.40;99.90
58517;DHT22;44308;50.810;0.284;2023-08-31T17:49:42;17.50;99.90
58517;DHT22;44308;50.810;0.284;2023-08-31T17:52:08;17.30;99.90
58517;DHT22;44308;50.810;0.284;2023-08-31T17:54:36;17.30;99.90
58517;DHT22;44308;50.810;0.284;2023-08-31T17:57:02;17.30;99.90
58517;DHT22;44308;50.810;0.284;2023-08-31T17:59:29;17.30;99.90
58517;DHT22;44308;50.810;0.284;2023-08-31T18:01:55;17.30;99.90
58517;DHT22;44308;50.810;0.284;2023-08-31T18:04:40;17.20;99.90
58517;DHT22;44308;50.810;0.284;2023-08-31T18:07:06;17.20;99.90
58517;DHT22;44308;50.810;0.284;2023-08-31T18:09:36;17.20;99.90
58517;DHT22;44308;50.810;0.284;2023-08-31T18:12:06;17.20;99.90
58517;DHT22;44308;50.810;0.284;2023-08-31T18:14:33;17.30;99.90
58517;DHT22;44308;50.810;0.284;2023-08-31T18:17:03;17.30;99.90
58517;DHT22;44308;50.810;0.284;2023-08-31T18:19:29;17.20;99.90
58517;DHT22;44308;50.810;0.284;2023-08-31T18:22:00;17.20;99.90
58517;DHT22;44308;50.810;0.284;2023-08-31T18:24:29;17.30;99.90
58517;DHT22;44308;50.810;0.284;2023-08-31T18:26:58;17.50;99.90
58517;DHT22;44308;50.810;0.284;2023-08-31T18:29:24;17.50;99.90
58517;DHT22;44308;50.810;0.284;2023-08-31T18:31:53;17.50;99.90
58517;DHT22;44308;50.810;0.284;2023-08-31T18:34:24;17.30;99.90
58517;DHT22;44308;50.810;0.284;2023-08-31T18:37:14;17.30;99.90
58517;DHT22;44308;50.810;0.284;2023-08-31T18:39:43;17.50;99.90
58517;DHT22;44308;50.810;0.284;2023-08-31T18:42:09;17.60;99.90
58517;DHT22;44308;50.810;0.284;2023-08-31T18:44:35;17.60;99.90
58517;DHT22;44308;50.810;0.284;2023-08-31T18:47:01;17.60;99.90
58517;DHT22;44308;50.810;0.284;2023-08-31T18:49:28;17.50;99.90
58517;DHT22;44308;50.810;0.284;2023-08-31T18:51:54;17.50;99.90
58517;DHT22;44308;50.810;0.284;2023-08-31T18:54:40;17.60;99.90
58517;DHT22;44308;50.810;0.284;2023-08-31T18:57:06;17.60;99.90
58517;DHT22;44308;50.810;0.284;2023-08-31T18:59:32;17.60;99.90
58517;DHT22;44308;50.810;0.284;2023-08-31T19:01:58;17.50;99.90
58517;DHT22;44308;50.810;0.284;2023-08-31T19:04:24;17.40;99.90
58517;DHT22;44308;50.810;0.284;2023-08-31T19:06:50;17.30;99.90
58517;DHT22;44308;50.810;0.284;2023-08-31T19:09:17;17.60;99.90
58517;DHT22;44308;50.810;0.284;2023-08-31T19:11:43;17.60;99.90
58517;DHT22;44308;50.810;0.284;2023-08-31T19:14:10;17.30;99.90
58517;DHT22;44308;50.810;0.284;2023-08-31T19:16:35;17.40;99.90
58517;DHT22;44308;50.810;0.284;2023-08-31T19:19:03;17.30;99.90
58517;DHT22;44308;50.810;0.284;2023-08-31T19:21:29;17.30;99.90
58517;DHT22;44308;50.810;0.284;2023-08-31T19:23:56;17.40;99.90
58517;DHT22;44308;50.810;0.284;2023-08-31T19:26:22;17.40;99.90
58517;DHT22;44308;50.810;0.284;2023-08-31T19:28:48;17.40;99.90
58517;DHT22;44308;50.810;0.284;2023-08-31T19:31:14;17.40;99.90
58517;DHT22;44308;50.810;0.284;2023-08-31T19:33:39;17.30;99.90
58517;DHT22;44308;50.810;0.284;2023-08-31T19:36:06;17.40;99.90
58517;DHT22;44308;50.810;0.284;2023-08-31T19:38:31;17.20;99.90
58517;DHT22;44308;50.810;0.284;2023-08-31T19:40:57;17.20;99.90
58517;DHT22;44308;50.810;0.284;2023-08-31T19:43:23;17.20;99.90
58517;DHT22;44308;50.810;0.284;2023-08-31T19:45:49;17.50;99.90
58517;DHT22;44308;50.810;0.284;2023-08-31T19:48:16;17.40;99.90